Station: Cape Jaffa

  Atmospheric Gas Attenuation - ITU Rec 676-11   --------------- db/100km ---------------
Date Time Temp RH % AH g/m3 Dew Point Wind Direction Speed kph Gust kph Barometer mB Rainfall Since 9am 24GHz 47GHz 76GHz 122GHz 134GHz 241GHz
27 11:50 12.1 86 9.22 9.8 11 13 1013.1 0 21.0 27.4 43.2 113.6 109.1 375.5
27 11:40 11.8 83 8.74 9.1 11 15 1013.1 0 20.0 26.7 41.4 108.7 102.9 353.9
27 11:30 11.7 81 8.47 8.6 11 15 1027.2 0 19.4 26.8 41.0 107.3 100.5 345.4
27 11:20 12.4 79 8.63 8.8 13 13 1013.1 0 19.7 26.3 40.6 106.6 100.6 346.0
27 11:10 13.3 77 8.9 9.3 7 9 1013.1 0 20.3 26.5 41.3 108.4 103.0 354.7
27 11:00 14.1 80 9.71 10.7 4 9 1027.3 0 21.9 28.2 44.8 117.7 114.2 393.7
27 10:50 13.4 84 9.77 10.7 0 4 1013.1 0 22.1 27.9 44.8 117.8 114.8 395.7
27 10:40 12.2 85 9.17 9.7 4 4 1013.1 0 20.9 27.3 43.0 112.9 108.2 372.6
27 10:30 11.5 85 8.78 9.1 7 9 1027.3 0 20.1 27.4 42.4 111.1 105.0 361.3
27 10:20 11.2 84 8.52 8.6 9 9 1013.1 0 19.5 26.5 40.8 107.1 100.7 346.1
27 10:10 11.4 81 8.32 8.2 15 17 1013.1 0 19.1 26.1 39.9 104.6 97.7 335.7
27 10:00 11.7 80 8.37 8.4 9 13 1027.4 0 19.2 26.7 40.6 106.3 99.2 340.7
27 09:50 12 78 8.31 8.4 11 11 1013.1 0 19.1 25.9 39.5 103.7 96.8 332.7
27 09:40 12.7 79 8.79 9.1 11 13 1013.1 0 20.1 26.5 41.1 108.0 102.4 352.2
27 09:30 12.7 81 9.02 9.5 11 15 1027.4 0 20.5 27.5 42.7 112.1 106.7 367.3
27 09:20 11.8 78 8.21 8.2 9 11 1013.1 0 18.9 25.8 39.2 102.9 95.7 328.8
27 09:10 12.8 80 8.96 9.4 17 19 1013.1 0 20.4 26.8 41.8 109.7 104.5 359.8
27 09:00 12.9 82 9.24 9.9 4 9 1027.3 0 21.0 27.8 43.5 114.2 109.5 376.9
27 08:50 12.5 83 9.13 9.8 2 2 1013.1 0.4 20.8 27.2 42.6 112.0 107.3 369.3
27 08:40 12 85 9.06 9.5 4 6 1013.1 0.4 20.7 27.2 42.6 112.0 107.0 368.3
27 08:30 11.7 87 9.1 9.6 6 9 1027.1 0.4 20.7 27.9 43.6 114.4 109.2 375.8
27 08:20 11.4 87 8.93 9.4 6 7 1013.1 0.4 20.4 27.2 42.4 111.4 106.0 364.9
27 08:10 11 87 8.71 8.9 11 13 1013.1 0.4 20.0 26.9 41.7 109.5 103.5 356.1
27 08:00 11.1 88 8.87 9.2 4 13 1026.9 0.4 20.3 27.7 43.0 112.6 106.8 367.4
27 07:50 11 89 8.91 9.2 4 6 1013.1 0.4 20.4 27.2 42.5 111.7 106.3 365.8
27 07:40 10.6 89 8.69 8.8 6 7 1013.1 0.4 19.9 27.0 41.8 109.8 103.8 357.0
27 07:30 10.8 90 8.9 9.2 2 2 1026.4 0.4 20.4 27.8 43.2 113.4 107.6 370.1
27 07:20 10.6 90 8.79 9 2 2 1013.1 0.4 20.2 27.2 42.2 110.9 105.2 361.8
27 07:10 10.3 90 8.62 8.7 2 2 1013.1 0.4 19.8 27.0 41.7 109.4 103.2 354.9
27 07:00 10.1 90 8.51 8.5 4 4 1025.9 0.4 19.6 27.3 41.9 109.9 103.1 354.1
27 06:50 10 91 8.55 8.6 2 2 1013.1 0.4 19.7 26.9 41.5 109.1 102.7 352.9
27 06:40 9.4 90 8.14 7.8 4 4 1013.1 0.4 18.8 26.4 40.1 105.3 97.8 335.7
27 06:30 9.4 90 8.14 7.8 6 7 1025.5 0.4 18.8 26.9 40.7 106.6 98.8 339.1
27 06:20 9.5 90 8.19 7.9 7 9 1013.1 0.4 18.9 26.5 40.3 105.7 98.3 337.7
27 06:10 9.5 88 8.01 7.7 6 7 1013.1 0.4 18.5 26.2 39.5 103.7 95.9 329.0
27 06:00 9.7 89 8.21 8 15 20 1025 0.4 18.9 26.9 40.8 106.9 99.3 341.1
27 05:50 9.7 88 8.11 7.8 4 6 1013.1 0.4 18.7 26.3 39.9 104.6 97.0 333.0
27 05:40 9.7 88 8.11 7.8 0 0 1013.1 0.4 18.7 26.3 39.9 104.6 97.0 333.0
27 05:30 9.9 88 8.22 8 7 15 1024.6 0.2 19.0 26.9 40.7 106.7 99.2 340.6
27 05:10 8.9 87 7.62 6.8 9 11 1013.1 0 17.7 25.7 38.2 100.2 91.3 312.8
27 04:40 9.4 85 7.69 7 11 13 1013.1 0 17.8 25.7 38.3 100.3 91.6 314.1
27 04:30 9.8 85 7.89 7.4 15 20 1023.8 0 18.2 26.3 39.4 103.1 94.7 324.9
27 04:20 10.1 83 7.85 7.3 17 19 1013.1 0 18.2 25.7 38.6 101.2 92.9 318.9
27 04:10 10.2 80 7.61 6.9 13 15 1013.1 0 17.6 25.3 37.5 98.4 89.6 307.2
27 04:00 10 81 7.61 6.9 13 19 1023.5 0 17.6 25.8 38.1 99.7 90.6 310.6
27 03:50 9.5 80 7.28 6.2 11 13 1013.1 0 17.0 25.0 36.5 95.7 86.0 294.4
27 03:40 9.7 81 7.47 6.6 13 15 1013.1 0 17.4 25.2 37.2 97.5 88.3 302.6
27 03:30 10.1 79 7.47 6.6 15 19 1023.4 0 17.3 25.5 37.5 98.1 88.6 303.6
27 03:20 10.5 79 7.66 7 19 22 1013.1 0 17.7 25.3 37.6 98.6 89.9 308.4
27 03:10 10.4 80 7.71 7.1 20 22 1013.1 0 17.8 25.4 37.9 99.2 90.7 311.1
27 03:00 10.4 81 7.81 7.3 13 20 1023.2 0 18.0 26.0 38.7 101.4 92.8 318.4
27 02:50 10.2 79 7.52 6.7 9 11 1013.1 0 17.4 25.2 37.2 97.4 88.4 303.0
27 02:40 10.6 77 7.52 6.7 11 11 1013.1 0 17.4 25.1 37.0 96.9 87.9 301.4
27 02:30 10.7 78 7.66 7 15 26 1023 0 17.7 25.6 37.9 99.3 90.4 310.1
27 02:20 10.8 76 7.51 6.7 15 17 1013.1 0 17.4 25.0 36.9 96.6 87.6 300.2
27 02:10 10.8 74 7.32 6.3 15 19 1013.1 0 17.0 24.7 36.1 94.6 85.1 291.5
27 02:00 10.4 73 7.04 5.8 15 19 1023.1 0 16.4 24.7 35.6 93.0 82.6 282.4
27 01:50 10.6 71 6.93 5.5 15 17 1013.1 0 16.2 24.1 34.7 90.7 80.2 274.4
27 01:40 11.1 70 7.05 5.8 17 22 1013.1 0 16.4 24.2 34.9 91.4 81.2 278.1
27 01:30 11.1 69 6.95 5.6 15 22 1023.1 0 16.2 24.4 34.9 91.3 80.7 275.8
27 01:20 10.9 70 6.96 5.6 11 13 1013.1 0 16.2 24.1 34.6 90.6 80.3 274.7
27 01:10 10.9 69 6.86 5.4 15 19 1013.1 0 16.0 23.9 34.2 89.6 79.0 270.2
27 01:00 10.8 69 6.82 5.3 15 20 1023.2 0 15.9 24.3 34.6 90.3 79.3 271.0
27 00:50 10.9 69 6.86 5.4 19 20 1013.1 0 16.0 23.9 34.2 89.6 79.0 270.2
27 00:40 10.9 70 6.96 5.6 19 22 1013.1 0 16.2 24.1 34.6 90.6 80.3 274.7
27 00:30 10.6 75 7.32 6.4 11 17 1023.3 0 17.0 25.1 36.6 95.8 86.0 294.7
27 00:20 10.4 77 7.42 6.5 13 15 1013.1 0 17.2 24.9 36.7 96.1 86.8 297.6
27 00:10 10.6 75 7.32 6.3 13 15 1013.1 0 17.0 24.7 36.2 94.8 85.3 292.2
27 00:00 10.6 73 7.13 6 17 26 1023.3 0 16.6 24.8 35.9 93.8 83.5 285.9
26 23:50 10.3 75 7.18 6 17 19 1013.1 0 16.7 24.6 35.8 93.7 83.8 286.9
26 23:40 10.3 78 7.47 6.6 15 19 1013.1 0 17.3 25.1 36.9 96.8 87.6 300.3
26 23:30 10.7 74 7.27 6.3 22 32 1023.3 0 16.9 25.0 36.4 95.2 85.3 292.0
26 23:20 10.7 74 7.27 6.2 22 26 1013.1 0 16.9 24.6 36.0 94.1 84.5 289.5
26 23:10 10.4 75 7.23 6.1 19 22 1013.1 0 16.8 24.6 35.9 94.1 84.3 288.8
26 23:00 10.6 77 7.52 6.7 20 33 1023.3 0 17.4 25.4 37.4 98.0 88.7 304.0
26 22:50 10.5 75 7.28 6.2 17 20 1013.1 0 16.9 24.7 36.1 94.5 84.9 290.7
26 22:40 10.5 79 7.66 7 17 20 1013.1 0 17.7 25.3 37.6 98.6 89.9 308.4
26 22:30 10.6 78 7.61 6.9 20 30 1023.3 0 17.6 25.6 37.8 98.9 89.9 308.2
26 22:20 10.8 75 7.41 6.5 17 19 1013.1 0 17.2 24.8 36.5 95.5 86.3 295.6
26 22:10 10.5 74 7.18 6 19 20 1013.1 0 16.7 24.5 35.7 93.4 83.6 286.1
26 22:00 10.5 74 7.18 6.1 13 19 1023.3 0 16.7 24.9 36.1 94.4 84.3 288.6
26 21:50 10.1 73 6.9 5.6 11 13 1013.1 0 16.1 24.2 34.8 90.9 80.3 274.7
26 21:40 9.9 81 7.56 6.9 19 22 1013.1 0 17.5 25.3 37.5 98.2 89.3 306.0
26 21:30 10 84 7.9 7.4 22 28 1023.4 0 18.3 26.2 39.3 102.9 94.6 324.4
26 21:20 10.3 80 7.66 7 26 30 1013.1 0 17.7 25.4 37.7 98.8 90.1 309.1
26 21:10 10.3 76 7.28 6.2 19 22 1013.1 0 16.9 24.7 36.2 94.7 85.1 291.5
26 21:00 10.4 74 7.13 6 20 28 1023.2 0 16.6 24.9 36.0 94.0 83.7 286.6
26 20:50 10.7 74 7.27 6.2 24 28 1013.1 0 16.9 24.6 36.0 94.1 84.5 289.5
26 20:40 10.1 76 7.19 6 17 19 1013.1 0 16.7 24.7 35.9 94.0 84.1 288.0
26 20:30 10.1 75 7.09 5.9 20 26 1023.1 0 16.5 24.9 35.9 93.9 83.5 285.8
26 20:20 10.1 74 7 5.8 20 24 1013.1 0 16.3 24.4 35.1 92.0 81.6 279.3
26 20:10 10.2 72 6.85 5.5 24 28 1013.1 0 16.0 24.1 34.5 90.3 79.6 272.1
26 20:00 9.9 74 6.91 5.5 20 24 1022.9 0 16.1 24.6 35.3 92.2 81.4 278.2
26 19:50 10.1 73 6.9 5.6 19 22 1013.1 0 16.1 24.2 34.8 90.9 80.3 274.7
26 19:40 9.9 73 6.82 5.3 22 26 1013.1 0 16.0 24.1 34.5 90.3 79.5 271.8
26 19:30 10.2 73 6.95 5.6 24 32 1022.5 0 16.2 24.6 35.3 92.3 81.5 278.9
26 19:20 10 73 6.86 5.5 22 26 1013.1 0 16.0 24.2 34.6 90.6 79.9 273.3
26 19:10 10.4 75 7.23 6.1 30 33 1013.1 0 16.8 24.6 35.9 94.1 84.3 288.8
26 19:00 10.5 71 6.89 5.5 28 37 1022.2 0 16.1 24.4 34.9 91.2 80.4 275.0
26 18:50 10.9 69 6.86 5.4 28 32 1013.1 0 16.0 23.9 34.2 89.6 79.0 270.2

Last Refresh: 27-Sep-2020 12:06:12

Most of the information presented on this site is sourced from the Bureau of Meteorology.  Copyright in all material sourced from the Bureau of Meteorology resides with the Commonwealth of Australia.